sensor_id;sensor_type;location;lat;lon;timestamp;P1;durP1;ratioP1;P2;durP2;ratioP2
22610;SDS011;11472;45.494;12.142;2022-07-06T00:00:01;2.70;;;1.60;;
22610;SDS011;11472;45.494;12.142;2022-07-06T00:01:00;2.70;;;1.60;;
22610;SDS011;11472;45.494;12.142;2022-07-06T00:02:01;2.70;;;1.60;;
22610;SDS011;11472;45.494;12.142;2022-07-06T00:03:00;2.70;;;1.60;;
22610;SDS011;11472;45.494;12.142;2022-07-06T00:04:02;2.70;;;1.60;;
22610;SDS011;11472;45.494;12.142;2022-07-06T00:05:00;2.70;;;1.60;;
22610;SDS011;11472;45.494;12.142;2022-07-06T00:06:01;2.70;;;1.60;;
22610;SDS011;11472;45.494;12.142;2022-07-06T00:07:00;2.70;;;1.60;;
22610;SDS011;11472;45.494;12.142;2022-07-06T00:08:00;2.70;;;1.60;;
22610;SDS011;11472;45.494;12.142;2022-07-06T00:09:01;2.70;;;1.60;;
22610;SDS011;11472;45.494;12.142;2022-07-06T00:10:00;2.70;;;1.60;;
22610;SDS011;11472;45.494;12.142;2022-07-06T00:11:00;2.70;;;1.60;;
22610;SDS011;11472;45.494;12.142;2022-07-06T00:12:00;2.70;;;1.60;;
22610;SDS011;11472;45.494;12.142;2022-07-06T00:13:00;2.70;;;1.60;;
22610;SDS011;11472;45.494;12.142;2022-07-06T00:14:00;5.40;;;2.00;;
22610;SDS011;11472;45.494;12.142;2022-07-06T00:15:00;5.40;;;2.00;;
22610;SDS011;11472;45.494;12.142;2022-07-06T00:16:00;5.40;;;2.00;;
22610;SDS011;11472;45.494;12.142;2022-07-06T00:17:00;5.40;;;2.00;;
22610;SDS011;11472;45.494;12.142;2022-07-06T00:18:00;5.40;;;2.00;;
22610;SDS011;11472;45.494;12.142;2022-07-06T00:19:00;5.40;;;2.00;;
22610;SDS011;11472;45.494;12.142;2022-07-06T00:20:00;5.40;;;2.00;;
22610;SDS011;11472;45.494;12.142;2022-07-06T00:21:00;5.40;;;2.00;;
22610;SDS011;11472;45.494;12.142;2022-07-06T00:22:00;5.40;;;2.00;;
22610;SDS011;11472;45.494;12.142;2022-07-06T00:23:00;5.40;;;2.00;;
22610;SDS011;11472;45.494;12.142;2022-07-06T00:24:00;5.40;;;2.00;;
22610;SDS011;11472;45.494;12.142;2022-07-06T00:25:00;5.40;;;2.00;;
22610;SDS011;11472;45.494;12.142;2022-07-06T00:26:01;5.40;;;2.00;;
22610;SDS011;11472;45.494;12.142;2022-07-06T00:27:00;5.40;;;2.00;;
22610;SDS011;11472;45.494;12.142;2022-07-06T00:28:00;5.40;;;2.00;;
22610;SDS011;11472;45.494;12.142;2022-07-06T00:29:00;2.40;;;1.80;;
22610;SDS011;11472;45.494;12.142;2022-07-06T00:30:00;2.40;;;1.80;;
22610;SDS011;11472;45.494;12.142;2022-07-06T00:31:00;2.40;;;1.80;;
22610;SDS011;11472;45.494;12.142;2022-07-06T00:32:02;2.40;;;1.80;;
22610;SDS011;11472;45.494;12.142;2022-07-06T00:33:00;2.40;;;1.80;;
22610;SDS011;11472;45.494;12.142;2022-07-06T00:34:00;2.40;;;1.80;;
22610;SDS011;11472;45.494;12.142;2022-07-06T00:35:00;2.40;;;1.80;;
22610;SDS011;11472;45.494;12.142;2022-07-06T00:36:00;2.40;;;1.80;;
22610;SDS011;11472;45.494;12.142;2022-07-06T00:37:00;2.40;;;1.80;;
22610;SDS011;11472;45.494;12.142;2022-07-06T00:38:00;2.40;;;1.80;;
22610;SDS011;11472;45.494;12.142;2022-07-06T00:39:00;2.40;;;1.80;;
22610;SDS011;11472;45.494;12.142;2022-07-06T00:40:00;2.40;;;1.80;;
22610;SDS011;11472;45.494;12.142;2022-07-06T00:41:00;2.40;;;1.80;;
22610;SDS011;11472;45.494;12.142;2022-07-06T00:42:01;2.40;;;1.80;;
22610;SDS011;11472;45.494;12.142;2022-07-06T00:43:00;2.40;;;1.80;;
22610;SDS011;11472;45.494;12.142;2022-07-06T00:44:04;3.00;;;2.10;;
22610;SDS011;11472;45.494;12.142;2022-07-06T00:45:00;3.00;;;2.10;;
22610;SDS011;11472;45.494;12.142;2022-07-06T00:46:00;3.00;;;2.10;;
22610;SDS011;11472;45.494;12.142;2022-07-06T00:47:01;3.00;;;2.10;;
22610;SDS011;11472;45.494;12.142;2022-07-06T00:48:00;3.00;;;2.10;;
22610;SDS011;11472;45.494;12.142;2022-07-06T00:49:00;3.00;;;2.10;;
22610;SDS011;11472;45.494;12.142;2022-07-06T00:50:11;3.00;;;2.10;;
22610;SDS011;11472;45.494;12.142;2022-07-06T00:51:00;3.00;;;2.10;;
22610;SDS011;11472;45.494;12.142;2022-07-06T00:52:00;3.00;;;2.10;;
22610;SDS011;11472;45.494;12.142;2022-07-06T00:53:02;3.00;;;2.10;;
22610;SDS011;11472;45.494;12.142;2022-07-06T00:54:03;3.00;;;2.10;;
22610;SDS011;11472;45.494;12.142;2022-07-06T00:55:02;3.00;;;2.10;;
22610;SDS011;11472;45.494;12.142;2022-07-06T00:56:00;3.00;;;2.10;;
22610;SDS011;11472;45.494;12.142;2022-07-06T00:57:00;3.00;;;2.10;;
22610;SDS011;11472;45.494;12.142;2022-07-06T00:58:02;3.00;;;2.10;;
22610;SDS011;11472;45.494;12.142;2022-07-06T00:59:02;5.90;;;2.40;;
22610;SDS011;11472;45.494;12.142;2022-07-06T01:00:02;5.90;;;2.40;;
22610;SDS011;11472;45.494;12.142;2022-07-06T01:01:00;5.90;;;2.40;;
22610;SDS011;11472;45.494;12.142;2022-07-06T01:02:01;5.90;;;2.40;;
22610;SDS011;11472;45.494;12.142;2022-07-06T01:03:00;5.90;;;2.40;;
22610;SDS011;11472;45.494;12.142;2022-07-06T01:04:00;5.90;;;2.40;;
22610;SDS011;11472;45.494;12.142;2022-07-06T01:05:01;5.90;;;2.40;;
22610;SDS011;11472;45.494;12.142;2022-07-06T01:06:01;5.90;;;2.40;;
22610;SDS011;11472;45.494;12.142;2022-07-06T01:07:01;5.90;;;2.40;;
22610;SDS011;11472;45.494;12.142;2022-07-06T01:08:00;5.90;;;2.40;;
22610;SDS011;11472;45.494;12.142;2022-07-06T01:09:00;5.90;;;2.40;;
22610;SDS011;11472;45.494;12.142;2022-07-06T01:10:02;5.90;;;2.40;;
22610;SDS011;11472;45.494;12.142;2022-07-06T01:11:01;5.90;;;2.40;;
22610;SDS011;11472;45.494;12.142;2022-07-06T01:12:00;5.90;;;2.40;;
22610;SDS011;11472;45.494;12.142;2022-07-06T01:13:00;5.90;;;2.40;;
22610;SDS011;11472;45.494;12.142;2022-07-06T01:14:01;4.90;;;2.70;;
22610;SDS011;11472;45.494;12.142;2022-07-06T01:15:01;4.90;;;2.70;;
22610;SDS011;11472;45.494;12.142;2022-07-06T01:16:00;4.90;;;2.70;;
22610;SDS011;11472;45.494;12.142;2022-07-06T01:17:00;4.90;;;2.70;;
22610;SDS011;11472;45.494;12.142;2022-07-06T01:18:00;4.90;;;2.70;;
22610;SDS011;11472;45.494;12.142;2022-07-06T01:19:00;4.90;;;2.70;;
22610;SDS011;11472;45.494;12.142;2022-07-06T01:21:11;4.90;;;2.70;;
22610;SDS011;11472;45.494;12.142;2022-07-06T01:22:00;4.90;;;2.70;;
22610;SDS011;11472;45.494;12.142;2022-07-06T01:23:01;4.90;;;2.70;;
22610;SDS011;11472;45.494;12.142;2022-07-06T01:24:00;4.90;;;2.70;;
22610;SDS011;11472;45.494;12.142;2022-07-06T01:25:00;4.90;;;2.70;;
22610;SDS011;11472;45.494;12.142;2022-07-06T01:26:00;4.90;;;2.70;;
22610;SDS011;11472;45.494;12.142;2022-07-06T01:27:00;4.90;;;2.70;;
22610;SDS011;11472;45.494;12.142;2022-07-06T01:28:00;4.90;;;2.70;;
22610;SDS011;11472;45.494;12.142;2022-07-06T01:29:00;5.10;;;2.50;;
22610;SDS011;11472;45.494;12.142;2022-07-06T01:30:01;5.10;;;2.50;;
22610;SDS011;11472;45.494;12.142;2022-07-06T01:31:00;5.10;;;2.50;;
22610;SDS011;11472;45.494;12.142;2022-07-06T01:32:01;5.10;;;2.50;;
22610;SDS011;11472;45.494;12.142;2022-07-06T01:33:00;5.10;;;2.50;;
22610;SDS011;11472;45.494;12.142;2022-07-06T01:34:01;5.10;;;2.50;;
22610;SDS011;11472;45.494;12.142;2022-07-06T01:35:00;5.10;;;2.50;;
22610;SDS011;11472;45.494;12.142;2022-07-06T01:36:00;5.10;;;2.50;;
22610;SDS011;11472;45.494;12.142;2022-07-06T01:37:00;5.10;;;2.50;;
22610;SDS011;11472;45.494;12.142;2022-07-06T01:38:00;5.10;;;2.50;;
22610;SDS011;11472;45.494;12.142;2022-07-06T01:39:00;5.10;;;2.50;;
22610;SDS011;11472;45.494;12.142;2022-07-06T01:40:01;5.10;;;2.50;;
22610;SDS011;11472;45.494;12.142;2022-07-06T01:41:05;5.10;;;2.50;;
22610;SDS011;11472;45.494;12.142;2022-07-06T01:42:00;5.10;;;2.50;;
22610;SDS011;11472;45.494;12.142;2022-07-06T01:43:00;5.10;;;2.50;;
22610;SDS011;11472;45.494;12.142;2022-07-06T01:44:01;3.70;;;2.10;;
22610;SDS011;11472;45.494;12.142;2022-07-06T01:45:00;3.70;;;2.10;;
22610;SDS011;11472;45.494;12.142;2022-07-06T01:46:00;3.70;;;2.10;;
22610;SDS011;11472;45.494;12.142;2022-07-06T01:47:00;3.70;;;2.10;;
22610;SDS011;11472;45.494;12.142;2022-07-06T01:48:00;3.70;;;2.10;;
22610;SDS011;11472;45.494;12.142;2022-07-06T01:49:00;3.70;;;2.10;;
22610;SDS011;11472;45.494;12.142;2022-07-06T01:50:01;3.70;;;2.10;;
22610;SDS011;11472;45.494;12.142;2022-07-06T01:51:00;3.70;;;2.10;;
22610;SDS011;11472;45.494;12.142;2022-07-06T01:52:00;3.70;;;2.10;;
22610;SDS011;11472;45.494;12.142;2022-07-06T01:53:00;3.70;;;2.10;;
22610;SDS011;11472;45.494;12.142;2022-07-06T01:54:00;3.70;;;2.10;;
22610;SDS011;11472;45.494;12.142;2022-07-06T01:55:00;3.70;;;2.10;;
22610;SDS011;11472;45.494;12.142;2022-07-06T01:56:00;3.70;;;2.10;;
22610;SDS011;11472;45.494;12.142;2022-07-06T01:57:00;3.70;;;2.10;;
22610;SDS011;11472;45.494;12.142;2022-07-06T01:58:00;3.70;;;2.10;;
22610;SDS011;11472;45.494;12.142;2022-07-06T01:59:00;3.10;;;1.90;;
22610;SDS011;11472;45.494;12.142;2022-07-06T02:00:01;3.10;;;1.90;;
22610;SDS011;11472;45.494;12.142;2022-07-06T02:01:01;3.10;;;1.90;;
22610;SDS011;11472;45.494;12.142;2022-07-06T02:02:00;3.10;;;1.90;;
22610;SDS011;11472;45.494;12.142;2022-07-06T02:03:03;3.10;;;1.90;;
22610;SDS011;11472;45.494;12.142;2022-07-06T02:04:00;3.10;;;1.90;;
22610;SDS011;11472;45.494;12.142;2022-07-06T02:05:00;3.10;;;1.90;;
22610;SDS011;11472;45.494;12.142;2022-07-06T02:06:00;3.10;;;1.90;;
22610;SDS011;11472;45.494;12.142;2022-07-06T02:07:01;3.10;;;1.90;;
22610;SDS011;11472;45.494;12.142;2022-07-06T02:08:00;3.10;;;1.90;;
22610;SDS011;11472;45.494;12.142;2022-07-06T02:09:00;3.10;;;1.90;;
22610;SDS011;11472;45.494;12.142;2022-07-06T02:10:00;3.10;;;1.90;;
22610;SDS011;11472;45.494;12.142;2022-07-06T02:11:01;3.10;;;1.90;;
22610;SDS011;11472;45.494;12.142;2022-07-06T02:12:00;3.10;;;1.90;;
22610;SDS011;11472;45.494;12.142;2022-07-06T02:13:00;3.10;;;1.90;;
22610;SDS011;11472;45.494;12.142;2022-07-06T02:14:00;5.90;;;2.70;;
22610;SDS011;11472;45.494;12.142;2022-07-06T02:15:00;5.90;;;2.70;;
22610;SDS011;11472;45.494;12.142;2022-07-06T02:16:00;5.90;;;2.70;;
22610;SDS011;11472;45.494;12.142;2022-07-06T02:17:00;5.90;;;2.70;;
22610;SDS011;11472;45.494;12.142;2022-07-06T02:18:00;5.90;;;2.70;;
22610;SDS011;11472;45.494;12.142;2022-07-06T02:19:00;5.90;;;2.70;;
22610;SDS011;11472;45.494;12.142;2022-07-06T02:20:00;5.90;;;2.70;;
22610;SDS011;11472;45.494;12.142;2022-07-06T02:21:00;5.90;;;2.70;;
22610;SDS011;11472;45.494;12.142;2022-07-06T02:22:00;5.90;;;2.70;;
22610;SDS011;11472;45.494;12.142;2022-07-06T02:23:00;5.90;;;2.70;;
22610;SDS011;11472;45.494;12.142;2022-07-06T02:24:01;5.90;;;2.70;;
22610;SDS011;11472;45.494;12.142;2022-07-06T02:25:00;5.90;;;2.70;;
22610;SDS011;11472;45.494;12.142;2022-07-06T02:26:00;5.90;;;2.70;;
22610;SDS011;11472;45.494;12.142;2022-07-06T02:27:00;5.90;;;2.70;;
22610;SDS011;11472;45.494;12.142;2022-07-06T02:28:00;5.90;;;2.70;;
22610;SDS011;11472;45.494;12.142;2022-07-06T02:29:00;5.60;;;3.20;;
22610;SDS011;11472;45.494;12.142;2022-07-06T02:30:00;5.60;;;3.20;;
22610;SDS011;11472;45.494;12.142;2022-07-06T02:31:00;5.60;;;3.20;;
22610;SDS011;11472;45.494;12.142;2022-07-06T02:32:00;5.60;;;3.20;;
22610;SDS011;11472;45.494;12.142;2022-07-06T02:33:00;5.60;;;3.20;;
22610;SDS011;11472;45.494;12.142;2022-07-06T02:34:00;5.60;;;3.20;;
22610;SDS011;11472;45.494;12.142;2022-07-06T02:35:00;5.60;;;3.20;;
22610;SDS011;11472;45.494;12.142;2022-07-06T02:36:00;5.60;;;3.20;;
22610;SDS011;11472;45.494;12.142;2022-07-06T02:37:00;5.60;;;3.20;;
22610;SDS011;11472;45.494;12.142;2022-07-06T02:38:00;5.60;;;3.20;;
22610;SDS011;11472;45.494;12.142;2022-07-06T02:39:00;5.60;;;3.20;;
22610;SDS011;11472;45.494;12.142;2022-07-06T02:40:01;5.60;;;3.20;;
22610;SDS011;11472;45.494;12.142;2022-07-06T02:41:00;5.60;;;3.20;;
22610;SDS011;11472;45.494;12.142;2022-07-06T02:42:00;5.60;;;3.20;;
22610;SDS011;11472;45.494;12.142;2022-07-06T02:43:00;5.60;;;3.20;;
22610;SDS011;11472;45.494;12.142;2022-07-06T02:44:00;5.30;;;2.60;;
22610;SDS011;11472;45.494;12.142;2022-07-06T02:45:00;5.30;;;2.60;;
22610;SDS011;11472;45.494;12.142;2022-07-06T02:46:00;5.30;;;2.60;;
22610;SDS011;11472;45.494;12.142;2022-07-06T02:47:00;5.30;;;2.60;;
22610;SDS011;11472;45.494;12.142;2022-07-06T02:48:00;5.30;;;2.60;;
22610;SDS011;11472;45.494;12.142;2022-07-06T02:49:00;5.30;;;2.60;;
22610;SDS011;11472;45.494;12.142;2022-07-06T02:50:00;5.30;;;2.60;;
22610;SDS011;11472;45.494;12.142;2022-07-06T02:51:00;5.30;;;2.60;;
22610;SDS011;11472;45.494;12.142;2022-07-06T02:52:00;5.30;;;2.60;;
22610;SDS011;11472;45.494;12.142;2022-07-06T02:53:01;5.30;;;2.60;;
22610;SDS011;11472;45.494;12.142;2022-07-06T02:54:00;5.30;;;2.60;;
22610;SDS011;11472;45.494;12.142;2022-07-06T02:55:00;5.30;;;2.60;;
22610;SDS011;11472;45.494;12.142;2022-07-06T02:56:00;5.30;;;2.60;;
22610;SDS011;11472;45.494;12.142;2022-07-06T02:57:00;5.30;;;2.60;;
22610;SDS011;11472;45.494;12.142;2022-07-06T02:58:00;5.30;;;2.60;;
22610;SDS011;11472;45.494;12.142;2022-07-06T02:59:00;3.20;;;2.40;;
22610;SDS011;11472;45.494;12.142;2022-07-06T03:00:00;3.20;;;2.40;;
22610;SDS011;11472;45.494;12.142;2022-07-06T03:01:00;3.20;;;2.40;;
22610;SDS011;11472;45.494;12.142;2022-07-06T03:02:00;3.20;;;2.40;;
22610;SDS011;11472;45.494;12.142;2022-07-06T03:03:00;3.20;;;2.40;;
22610;SDS011;11472;45.494;12.142;2022-07-06T03:04:00;3.20;;;2.40;;
22610;SDS011;11472;45.494;12.142;2022-07-06T03:05:00;3.20;;;2.40;;
22610;SDS011;11472;45.494;12.142;2022-07-06T03:06:00;3.20;;;2.40;;
22610;SDS011;11472;45.494;12.142;2022-07-06T03:07:00;3.20;;;2.40;;
22610;SDS011;11472;45.494;12.142;2022-07-06T03:08:00;3.20;;;2.40;;
22610;SDS011;11472;45.494;12.142;2022-07-06T03:09:00;3.20;;;2.40;;
22610;SDS011;11472;45.494;12.142;2022-07-06T03:10:00;3.20;;;2.40;;
22610;SDS011;11472;45.494;12.142;2022-07-06T03:11:00;3.20;;;2.40;;
22610;SDS011;11472;45.494;12.142;2022-07-06T03:12:01;3.20;;;2.40;;
22610;SDS011;11472;45.494;12.142;2022-07-06T03:13:00;3.20;;;2.40;;
22610;SDS011;11472;45.494;12.142;2022-07-06T03:14:03;3.60;;;2.70;;
22610;SDS011;11472;45.494;12.142;2022-07-06T03:15:00;3.60;;;2.70;;
22610;SDS011;11472;45.494;12.142;2022-07-06T03:16:00;3.60;;;2.70;;
22610;SDS011;11472;45.494;12.142;2022-07-06T03:17:00;3.60;;;2.70;;
22610;SDS011;11472;45.494;12.142;2022-07-06T03:18:00;3.60;;;2.70;;
22610;SDS011;11472;45.494;12.142;2022-07-06T03:19:00;3.60;;;2.70;;
22610;SDS011;11472;45.494;12.142;2022-07-06T03:20:00;3.60;;;2.70;;
22610;SDS011;11472;45.494;12.142;2022-07-06T03:21:03;3.60;;;2.70;;
22610;SDS011;11472;45.494;12.142;2022-07-06T03:22:00;3.60;;;2.70;;
22610;SDS011;11472;45.494;12.142;2022-07-06T03:23:00;3.60;;;2.70;;
22610;SDS011;11472;45.494;12.142;2022-07-06T03:24:00;3.60;;;2.70;;
22610;SDS011;11472;45.494;12.142;2022-07-06T03:25:00;3.60;;;2.70;;
22610;SDS011;11472;45.494;12.142;2022-07-06T03:26:00;3.60;;;2.70;;
22610;SDS011;11472;45.494;12.142;2022-07-06T03:27:00;3.60;;;2.70;;
22610;SDS011;11472;45.494;12.142;2022-07-06T03:28:00;3.60;;;2.70;;
22610;SDS011;11472;45.494;12.142;2022-07-06T03:29:00;3.60;;;2.60;;
22610;SDS011;11472;45.494;12.142;2022-07-06T03:30:00;3.60;;;2.60;;
22610;SDS011;11472;45.494;12.142;2022-07-06T03:31:00;3.60;;;2.60;;
22610;SDS011;11472;45.494;12.142;2022-07-06T03:32:00;3.60;;;2.60;;
22610;SDS011;11472;45.494;12.142;2022-07-06T03:33:00;3.60;;;2.60;;
22610;SDS011;11472;45.494;12.142;2022-07-06T03:34:00;3.60;;;2.60;;
22610;SDS011;11472;45.494;12.142;2022-07-06T03:35:00;3.60;;;2.60;;
22610;SDS011;11472;45.494;12.142;2022-07-06T03:36:00;3.60;;;2.60;;
22610;SDS011;11472;45.494;12.142;2022-07-06T03:37:00;3.60;;;2.60;;
22610;SDS011;11472;45.494;12.142;2022-07-06T03:38:02;3.60;;;2.60;;
22610;SDS011;11472;45.494;12.142;2022-07-06T03:39:00;3.60;;;2.60;;
22610;SDS011;11472;45.494;12.142;2022-07-06T03:40:00;3.60;;;2.60;;
22610;SDS011;11472;45.494;12.142;2022-07-06T03:41:31;3.60;;;2.60;;
22610;SDS011;11472;45.494;12.142;2022-07-06T03:42:00;3.60;;;2.60;;
22610;SDS011;11472;45.494;12.142;2022-07-06T03:43:00;3.60;;;2.60;;
22610;SDS011;11472;45.494;12.142;2022-07-06T03:44:00;4.30;;;3.00;;
22610;SDS011;11472;45.494;12.142;2022-07-06T03:45:00;4.30;;;3.00;;
22610;SDS011;11472;45.494;12.142;2022-07-06T03:46:00;4.30;;;3.00;;
22610;SDS011;11472;45.494;12.142;2022-07-06T03:47:00;4.30;;;3.00;;
22610;SDS011;11472;45.494;12.142;2022-07-06T03:48:00;4.30;;;3.00;;
22610;SDS011;11472;45.494;12.142;2022-07-06T03:49:00;4.30;;;3.00;;
22610;SDS011;11472;45.494;12.142;2022-07-06T03:50:00;4.30;;;3.00;;
22610;SDS011;11472;45.494;12.142;2022-07-06T03:51:00;4.30;;;3.00;;
22610;SDS011;11472;45.494;12.142;2022-07-06T03:52:00;4.30;;;3.00;;
22610;SDS011;11472;45.494;12.142;2022-07-06T03:53:01;4.30;;;3.00;;
22610;SDS011;11472;45.494;12.142;2022-07-06T03:54:00;4.30;;;3.00;;
22610;SDS011;11472;45.494;12.142;2022-07-06T03:55:01;4.30;;;3.00;;
22610;SDS011;11472;45.494;12.142;2022-07-06T03:56:10;4.30;;;3.00;;
22610;SDS011;11472;45.494;12.142;2022-07-06T03:57:00;4.30;;;3.00;;
22610;SDS011;11472;45.494;12.142;2022-07-06T03:58:06;4.30;;;3.00;;
22610;SDS011;11472;45.494;12.142;2022-07-06T03:59:01;4.10;;;2.80;;
22610;SDS011;11472;45.494;12.142;2022-07-06T04:00:00;4.10;;;2.80;;
22610;SDS011;11472;45.494;12.142;2022-07-06T04:01:31;4.10;;;2.80;;
22610;SDS011;11472;45.494;12.142;2022-07-06T04:02:00;4.10;;;2.80;;
22610;SDS011;11472;45.494;12.142;2022-07-06T04:03:01;4.10;;;2.80;;
22610;SDS011;11472;45.494;12.142;2022-07-06T04:04:00;4.10;;;2.80;;
22610;SDS011;11472;45.494;12.142;2022-07-06T04:05:00;4.10;;;2.80;;
22610;SDS011;11472;45.494;12.142;2022-07-06T04:06:00;4.10;;;2.80;;
22610;SDS011;11472;45.494;12.142;2022-07-06T04:07:00;4.10;;;2.80;;
22610;SDS011;11472;45.494;12.142;2022-07-06T04:08:00;4.10;;;2.80;;
22610;SDS011;11472;45.494;12.142;2022-07-06T04:09:01;4.10;;;2.80;;
22610;SDS011;11472;45.494;12.142;2022-07-06T04:10:00;4.10;;;2.80;;
22610;SDS011;11472;45.494;12.142;2022-07-06T04:11:00;4.10;;;2.80;;
22610;SDS011;11472;45.494;12.142;2022-07-06T04:12:00;4.10;;;2.80;;
22610;SDS011;11472;45.494;12.142;2022-07-06T04:13:00;4.10;;;2.80;;
22610;SDS011;11472;45.494;12.142;2022-07-06T04:14:00;3.70;;;2.70;;
22610;SDS011;11472;45.494;12.142;2022-07-06T04:15:00;3.70;;;2.70;;
22610;SDS011;11472;45.494;12.142;2022-07-06T04:16:00;3.70;;;2.70;;
22610;SDS011;11472;45.494;12.142;2022-07-06T04:17:10;3.70;;;2.70;;
22610;SDS011;11472;45.494;12.142;2022-07-06T04:18:00;3.70;;;2.70;;
22610;SDS011;11472;45.494;12.142;2022-07-06T04:19:00;3.70;;;2.70;;
22610;SDS011;11472;45.494;12.142;2022-07-06T04:20:00;3.70;;;2.70;;
22610;SDS011;11472;45.494;12.142;2022-07-06T04:21:00;3.70;;;2.70;;
22610;SDS011;11472;45.494;12.142;2022-07-06T04:22:00;3.70;;;2.70;;
22610;SDS011;11472;45.494;12.142;2022-07-06T04:23:00;3.70;;;2.70;;
22610;SDS011;11472;45.494;12.142;2022-07-06T04:24:02;3.70;;;2.70;;
22610;SDS011;11472;45.494;12.142;2022-07-06T04:25:01;3.70;;;2.70;;
22610;SDS011;11472;45.494;12.142;2022-07-06T04:26:00;3.70;;;2.70;;
22610;SDS011;11472;45.494;12.142;2022-07-06T04:27:00;3.70;;;2.70;;
22610;SDS011;11472;45.494;12.142;2022-07-06T04:28:00;3.70;;;2.70;;
22610;SDS011;11472;45.494;12.142;2022-07-06T04:29:00;3.20;;;2.60;;
22610;SDS011;11472;45.494;12.142;2022-07-06T04:30:01;3.20;;;2.60;;
22610;SDS011;11472;45.494;12.142;2022-07-06T04:31:00;3.20;;;2.60;;
22610;SDS011;11472;45.494;12.142;2022-07-06T04:32:00;3.20;;;2.60;;
22610;SDS011;11472;45.494;12.142;2022-07-06T04:33:00;3.20;;;2.60;;
22610;SDS011;11472;45.494;12.142;2022-07-06T04:34:00;3.20;;;2.60;;
22610;SDS011;11472;45.494;12.142;2022-07-06T04:35:03;3.20;;;2.60;;
22610;SDS011;11472;45.494;12.142;2022-07-06T04:36:46;3.20;;;2.60;;
22610;SDS011;11472;45.494;12.142;2022-07-06T04:37:00;3.20;;;2.60;;
22610;SDS011;11472;45.494;12.142;2022-07-06T04:38:00;3.20;;;2.60;;
22610;SDS011;11472;45.494;12.142;2022-07-06T04:39:00;3.20;;;2.60;;
22610;SDS011;11472;45.494;12.142;2022-07-06T04:40:00;3.20;;;2.60;;
22610;SDS011;11472;45.494;12.142;2022-07-06T04:41:00;3.20;;;2.60;;
22610;SDS011;11472;45.494;12.142;2022-07-06T04:42:00;3.20;;;2.60;;
22610;SDS011;11472;45.494;12.142;2022-07-06T04:43:00;3.20;;;2.60;;
22610;SDS011;11472;45.494;12.142;2022-07-06T04:44:00;3.20;;;2.60;;
22610;SDS011;11472;45.494;12.142;2022-07-06T04:45:00;4.10;;;2.90;;
22610;SDS011;11472;45.494;12.142;2022-07-06T04:46:01;4.10;;;2.90;;
22610;SDS011;11472;45.494;12.142;2022-07-06T04:47:00;4.10;;;2.90;;
22610;SDS011;11472;45.494;12.142;2022-07-06T04:48:00;4.10;;;2.90;;
22610;SDS011;11472;45.494;12.142;2022-07-06T04:49:00;4.10;;;2.90;;
22610;SDS011;11472;45.494;12.142;2022-07-06T04:50:00;4.10;;;2.90;;
22610;SDS011;11472;45.494;12.142;2022-07-06T04:51:00;4.10;;;2.90;;
22610;SDS011;11472;45.494;12.142;2022-07-06T04:52:01;4.10;;;2.90;;
22610;SDS011;11472;45.494;12.142;2022-07-06T04:53:01;4.10;;;2.90;;
22610;SDS011;11472;45.494;12.142;2022-07-06T04:54:00;4.10;;;2.90;;
22610;SDS011;11472;45.494;12.142;2022-07-06T04:55:00;4.10;;;2.90;;
22610;SDS011;11472;45.494;12.142;2022-07-06T04:56:00;4.10;;;2.90;;
22610;SDS011;11472;45.494;12.142;2022-07-06T04:57:00;4.10;;;2.90;;
22610;SDS011;11472;45.494;12.142;2022-07-06T04:58:01;4.10;;;2.90;;
22610;SDS011;11472;45.494;12.142;2022-07-06T04:59:00;4.10;;;2.90;;
22610;SDS011;11472;45.494;12.142;2022-07-06T05:00:01;4.30;;;2.70;;
22610;SDS011;11472;45.494;12.142;2022-07-06T05:01:00;4.30;;;2.70;;
22610;SDS011;11472;45.494;12.142;2022-07-06T05:02:00;4.30;;;2.70;;
22610;SDS011;11472;45.494;12.142;2022-07-06T05:03:00;4.30;;;2.70;;
22610;SDS011;11472;45.494;12.142;2022-07-06T05:04:00;4.30;;;2.70;;
22610;SDS011;11472;45.494;12.142;2022-07-06T05:05:00;4.30;;;2.70;;
22610;SDS011;11472;45.494;12.142;2022-07-06T05:06:00;4.30;;;2.70;;
22610;SDS011;11472;45.494;12.142;2022-07-06T05:07:00;4.30;;;2.70;;
22610;SDS011;11472;45.494;12.142;2022-07-06T05:08:00;4.30;;;2.70;;
22610;SDS011;11472;45.494;12.142;2022-07-06T05:09:00;4.30;;;2.70;;
22610;SDS011;11472;45.494;12.142;2022-07-06T05:10:00;4.30;;;2.70;;
22610;SDS011;11472;45.494;12.142;2022-07-06T05:11:00;4.30;;;2.70;;
22610;SDS011;11472;45.494;12.142;2022-07-06T05:12:00;4.30;;;2.70;;
22610;SDS011;11472;45.494;12.142;2022-07-06T05:13:00;4.30;;;2.70;;
22610;SDS011;11472;45.494;12.142;2022-07-06T05:14:00;4.30;;;2.70;;
22610;SDS011;11472;45.494;12.142;2022-07-06T05:15:00;2.80;;;2.00;;
22610;SDS011;11472;45.494;12.142;2022-07-06T05:16:00;2.80;;;2.00;;
22610;SDS011;11472;45.494;12.142;2022-07-06T05:17:00;2.80;;;2.00;;
22610;SDS011;11472;45.494;12.142;2022-07-06T05:18:00;2.80;;;2.00;;
22610;SDS011;11472;45.494;12.142;2022-07-06T05:19:00;2.80;;;2.00;;
22610;SDS011;11472;45.494;12.142;2022-07-06T05:20:00;2.80;;;2.00;;
22610;SDS011;11472;45.494;12.142;2022-07-06T05:21:00;2.80;;;2.00;;
22610;SDS011;11472;45.494;12.142;2022-07-06T05:22:00;2.80;;;2.00;;
22610;SDS011;11472;45.494;12.142;2022-07-06T05:23:00;2.80;;;2.00;;
22610;SDS011;11472;45.494;12.142;2022-07-06T05:24:01;2.80;;;2.00;;
22610;SDS011;11472;45.494;12.142;2022-07-06T05:25:00;2.80;;;2.00;;
22610;SDS011;11472;45.494;12.142;2022-07-06T05:26:00;2.80;;;2.00;;
22610;SDS011;11472;45.494;12.142;2022-07-06T05:27:00;2.80;;;2.00;;
22610;SDS011;11472;45.494;12.142;2022-07-06T05:28:00;2.80;;;2.00;;
22610;SDS011;11472;45.494;12.142;2022-07-06T05:29:00;2.80;;;2.00;;
22610;SDS011;11472;45.494;12.142;2022-07-06T05:30:01;7.20;;;4.70;;
22610;SDS011;11472;45.494;12.142;2022-07-06T05:31:01;7.20;;;4.70;;
22610;SDS011;11472;45.494;12.142;2022-07-06T05:32:00;7.20;;;4.70;;
22610;SDS011;11472;45.494;12.142;2022-07-06T05:33:01;7.20;;;4.70;;
22610;SDS011;11472;45.494;12.142;2022-07-06T05:34:01;7.20;;;4.70;;
22610;SDS011;11472;45.494;12.142;2022-07-06T05:35:10;7.20;;;4.70;;
22610;SDS011;11472;45.494;12.142;2022-07-06T05:36:00;7.20;;;4.70;;
22610;SDS011;11472;45.494;12.142;2022-07-06T05:37:00;7.20;;;4.70;;
22610;SDS011;11472;45.494;12.142;2022-07-06T05:38:00;7.20;;;4.70;;
22610;SDS011;11472;45.494;12.142;2022-07-06T05:39:00;7.20;;;4.70;;
22610;SDS011;11472;45.494;12.142;2022-07-06T05:40:00;7.20;;;4.70;;
22610;SDS011;11472;45.494;12.142;2022-07-06T05:41:00;7.20;;;4.70;;
22610;SDS011;11472;45.494;12.142;2022-07-06T05:42:01;7.20;;;4.70;;
22610;SDS011;11472;45.494;12.142;2022-07-06T05:43:00;7.20;;;4.70;;
22610;SDS011;11472;45.494;12.142;2022-07-06T05:44:00;7.20;;;4.70;;
22610;SDS011;11472;45.494;12.142;2022-07-06T05:45:00;3.90;;;2.50;;
22610;SDS011;11472;45.494;12.142;2022-07-06T05:46:00;3.90;;;2.50;;
22610;SDS011;11472;45.494;12.142;2022-07-06T05:47:14;3.90;;;2.50;;
22610;SDS011;11472;45.494;12.142;2022-07-06T05:48:10;3.90;;;2.50;;
22610;SDS011;11472;45.494;12.142;2022-07-06T05:49:10;3.90;;;2.50;;
22610;SDS011;11472;45.494;12.142;2022-07-06T05:50:10;3.90;;;2.50;;
22610;SDS011;11472;45.494;12.142;2022-07-06T05:51:00;3.90;;;2.50;;
22610;SDS011;11472;45.494;12.142;2022-07-06T05:52:00;3.90;;;2.50;;
22610;SDS011;11472;45.494;12.142;2022-07-06T05:53:07;3.90;;;2.50;;
22610;SDS011;11472;45.494;12.142;2022-07-06T05:54:00;3.90;;;2.50;;
22610;SDS011;11472;45.494;12.142;2022-07-06T05:55:00;3.90;;;2.50;;
22610;SDS011;11472;45.494;12.142;2022-07-06T05:56:00;3.90;;;2.50;;